createdAt,value
2017-07-04T00:00:07.144Z,70.50
2017-07-04T00:02:34.682Z,70.30
2017-07-04T00:05:02.245Z,70.50
2017-07-04T00:07:29.806Z,69.70
2017-07-04T00:09:57.359Z,69.60
2017-07-04T00:12:24.932Z,70.00
2017-07-04T00:14:52.476Z,70.20
2017-07-04T00:17:20.010Z,70.30
2017-07-04T00:19:47.541Z,70.00
2017-07-04T00:22:15.094Z,69.50
2017-07-04T00:24:42.631Z,69.50
2017-07-04T00:27:10.191Z,69.40
2017-07-04T00:29:37.726Z,68.60
2017-07-04T00:32:05.283Z,68.80
2017-07-04T00:34:32.810Z,68.90
2017-07-04T00:37:00.373Z,69.20
2017-07-04T00:39:27.927Z,69.70
2017-07-04T00:41:55.467Z,70.20
2017-07-04T00:44:23.031Z,70.10
2017-07-04T00:46:50.568Z,70.80
2017-07-04T00:49:18.126Z,72.10
2017-07-04T00:51:45.655Z,73.20
2017-07-04T00:54:13.976Z,75.60
2017-07-04T00:56:41.505Z,75.50
2017-07-04T00:59:09.058Z,76.40
2017-07-04T01:01:36.586Z,76.70
2017-07-04T01:04:04.153Z,77.70
2017-07-04T01:06:31.681Z,77.60
2017-07-04T01:08:59.202Z,76.80
2017-07-04T01:11:26.750Z,74.60
2017-07-04T01:13:54.293Z,73.40
2017-07-04T01:16:22.597Z,73.90
2017-07-04T01:18:50.126Z,73.20
2017-07-04T01:21:18.434Z,73.90
2017-07-04T01:23:45.966Z,73.90
2017-07-04T01:26:14.274Z,74.00
2017-07-04T01:28:41.804Z,73.90
2017-07-04T01:31:10.113Z,72.80
2017-07-04T01:33:37.631Z,72.80
2017-07-04T01:36:05.183Z,72.40
2017-07-04T01:38:32.714Z,71.10
2017-07-04T01:41:00.263Z,70.90
2017-07-04T01:43:27.786Z,71.10
2017-07-04T01:45:55.344Z,71.30
2017-07-04T01:48:22.862Z,69.30
2017-07-04T01:50:50.387Z,69.10
2017-07-04T01:53:17.933Z,68.70
2017-07-04T01:55:45.477Z,68.40
2017-07-04T01:58:13.023Z,67.50
2017-07-04T02:00:41.309Z,71.60
2017-07-04T02:03:08.860Z,72.10
2017-07-04T02:05:37.166Z,74.10
2017-07-04T02:08:04.732Z,74.10
2017-07-04T02:10:32.258Z,75.80
2017-07-04T02:13:00.570Z,75.40
2017-07-04T02:15:28.098Z,75.40
2017-07-04T02:17:55.658Z,76.60
2017-07-04T02:20:23.949Z,77.40
2017-07-04T02:22:51.493Z,77.30
2017-07-04T02:25:19.814Z,78.60
2017-07-04T02:27:47.370Z,78.60
2017-07-04T02:30:14.931Z,79.30
2017-07-04T02:32:42.463Z,78.60
2017-07-04T02:35:10.006Z,79.30
2017-07-04T02:37:38.304Z,79.30
2017-07-04T02:40:05.881Z,79.30
2017-07-04T02:42:33.413Z,79.50
2017-07-04T02:45:00.972Z,79.80
2017-07-04T02:47:28.524Z,80.10
2017-07-04T02:49:56.087Z,81.20
2017-07-04T02:52:23.646Z,80.40
2017-07-04T02:54:51.183Z,76.80
2017-07-04T02:57:18.738Z,74.20
2017-07-04T02:59:46.272Z,69.80
2017-07-04T03:02:13.824Z,70.70
2017-07-04T03:04:41.345Z,72.10
2017-07-04T03:07:08.890Z,67.40
2017-07-04T03:09:36.425Z,66.90
2017-07-04T03:12:03.968Z,66.70
2017-07-04T03:14:31.507Z,67.10
2017-07-04T03:16:59.064Z,65.80
2017-07-04T03:19:26.594Z,65.50
2017-07-04T03:21:54.149Z,65.10
2017-07-04T03:24:21.690Z,64.70
2017-07-04T03:26:49.978Z,66.00
2017-07-04T03:29:18.294Z,65.00
2017-07-04T03:31:45.816Z,65.00
2017-07-04T03:34:14.138Z,68.00
2017-07-04T03:36:41.662Z,68.10
2017-07-04T03:39:09.202Z,72.30
2017-07-04T03:41:37.494Z,72.90
2017-07-04T03:44:05.045Z,72.90
2017-07-04T03:46:32.582Z,74.40
2017-07-04T03:49:00.133Z,74.40
2017-07-04T03:51:27.669Z,74.90
2017-07-04T03:53:55.241Z,75.00
2017-07-04T03:56:22.769Z,72.70
2017-07-04T03:58:50.305Z,72.00
2017-07-04T04:01:17.860Z,68.00
2017-07-04T04:03:45.387Z,64.40
2017-07-04T04:06:12.941Z,62.90
2017-07-04T04:08:40.469Z,63.00
2017-07-04T04:11:08.019Z,63.10
2017-07-04T04:13:35.559Z,63.20
2017-07-04T04:16:03.113Z,60.80
2017-07-04T04:18:30.650Z,60.20
2017-07-04T04:20:58.205Z,60.10
2017-07-04T04:23:25.762Z,59.30
2017-07-04T04:25:53.290Z,58.90
2017-07-04T04:28:20.843Z,59.00
2017-07-04T04:30:48.371Z,58.90
2017-07-04T04:33:15.922Z,58.70
2017-07-04T04:35:43.457Z,58.60
2017-07-04T04:38:11.018Z,57.90
2017-07-04T04:40:38.549Z,58.00
2017-07-04T04:43:06.090Z,58.00
2017-07-04T04:45:33.622Z,58.10
2017-07-04T04:48:01.186Z,57.50
2017-07-04T04:50:28.717Z,56.30
2017-07-04T04:52:56.247Z,55.10
2017-07-04T04:55:23.798Z,55.60
2017-07-04T04:57:51.338Z,55.60
2017-07-04T05:00:18.883Z,55.20
2017-07-04T05:02:46.409Z,52.40
2017-07-04T05:05:14.809Z,52.80
2017-07-04T05:07:42.355Z,52.80
2017-07-04T05:10:10.674Z,55.30
2017-07-04T05:12:38.216Z,55.20
2017-07-04T05:15:05.770Z,56.20
2017-07-04T05:17:33.298Z,57.00
2017-07-04T05:20:00.836Z,56.60
2017-07-04T05:22:28.391Z,56.90
2017-07-04T05:24:55.913Z,57.80
2017-07-04T05:27:23.471Z,57.80
2017-07-04T05:29:51.010Z,57.80
2017-07-04T05:32:19.320Z,57.30
2017-07-04T05:34:46.851Z,57.20
2017-07-04T05:37:15.170Z,57.80
2017-07-04T05:39:42.712Z,57.70
2017-07-04T05:42:10.244Z,57.30
2017-07-04T05:44:38.595Z,57.00
2017-07-04T05:47:06.160Z,56.10
2017-07-04T05:49:33.713Z,56.80
2017-07-04T05:52:01.242Z,56.00
2017-07-04T05:54:28.807Z,56.60
2017-07-04T05:56:56.357Z,55.40
2017-07-04T05:59:23.902Z,55.50
2017-07-04T06:01:51.438Z,55.20
2017-07-04T06:04:19.008Z,54.10
2017-07-04T06:06:46.543Z,53.00
2017-07-04T06:09:14.872Z,51.50
2017-07-04T06:11:42.415Z,52.20
2017-07-04T06:14:09.963Z,49.20
2017-07-04T06:16:37.507Z,49.70
2017-07-04T06:19:05.835Z,49.90
2017-07-04T06:21:33.365Z,49.90
2017-07-04T06:24:00.922Z,48.90
2017-07-04T06:26:28.462Z,48.50
2017-07-04T06:28:56.745Z,48.50
2017-07-04T06:31:25.053Z,48.70
2017-07-04T06:33:52.574Z,48.70
2017-07-04T06:36:20.926Z,49.70
2017-07-04T06:38:48.450Z,49.60
2017-07-04T06:41:16.019Z,49.60
2017-07-04T06:43:43.550Z,50.30
2017-07-04T06:46:11.103Z,50.50
2017-07-04T06:48:38.637Z,50.50
2017-07-04T06:51:06.946Z,52.20
2017-07-04T06:53:34.474Z,51.50
2017-07-04T06:56:02.793Z,54.20
2017-07-04T06:58:30.321Z,53.40
2017-07-04T07:00:58.617Z,53.50
2017-07-04T07:03:26.138Z,53.40
2017-07-04T07:05:54.458Z,54.60
2017-07-04T07:08:21.983Z,54.00
2017-07-04T07:10:50.281Z,51.30
2017-07-04T07:13:17.847Z,51.20
2017-07-04T07:15:45.494Z,51.30
2017-07-04T07:18:13.047Z,49.30
2017-07-04T07:20:41.339Z,47.40
2017-07-04T07:23:08.902Z,47.40
2017-07-04T07:25:36.430Z,46.40
2017-07-04T07:28:03.979Z,45.70
2017-07-04T07:30:31.507Z,44.90
2017-07-04T07:32:59.066Z,45.70
2017-07-04T07:35:26.608Z,45.40
2017-07-04T07:37:54.169Z,46.00
2017-07-04T07:40:21.696Z,46.40
2017-07-04T07:42:50.002Z,48.30
2017-07-04T07:45:17.549Z,47.60
2017-07-04T07:47:45.073Z,47.50
2017-07-04T07:50:12.622Z,47.50
2017-07-04T07:52:40.151Z,46.90
2017-07-04T07:55:07.715Z,46.40
2017-07-04T07:57:35.254Z,46.70
2017-07-04T08:00:02.804Z,46.70
2017-07-04T08:02:30.324Z,46.10
2017-07-04T08:04:57.882Z,45.50
2017-07-04T08:07:25.410Z,45.00
2017-07-04T08:09:52.980Z,44.50
2017-07-04T08:12:20.518Z,42.80
2017-07-04T08:14:48.050Z,41.50
2017-07-04T08:17:15.599Z,41.80
2017-07-04T08:19:43.123Z,40.60
2017-07-04T08:22:10.680Z,40.90
2017-07-04T08:24:38.312Z,39.30
2017-07-04T08:27:05.853Z,37.40
2017-07-04T08:29:33.386Z,33.10
2017-07-04T08:32:04.470Z,29.80
2017-07-04T08:34:32.001Z,29.30
2017-07-04T08:36:59.551Z,29.50
2017-07-04T08:39:27.094Z,29.90
2017-07-04T08:41:55.433Z,30.10
2017-07-04T08:44:22.954Z,30.00
2017-07-04T08:46:50.493Z,27.90
2017-07-04T08:49:21.787Z,26.50
2017-07-04T08:51:49.309Z,27.70
2017-07-04T08:54:17.619Z,26.30
2017-07-04T08:56:45.141Z,26.20
2017-07-04T08:59:13.457Z,26.00
2017-07-04T09:01:40.983Z,26.00
2017-07-04T09:04:09.300Z,26.40
2017-07-04T09:06:36.842Z,26.30
2017-07-04T09:09:04.397Z,27.20
2017-07-04T09:11:31.922Z,24.70
2017-07-04T09:14:00.234Z,23.30
2017-07-04T09:16:27.763Z,22.60
2017-07-04T09:18:56.068Z,20.50
2017-07-04T09:21:23.606Z,20.50
2017-07-04T09:23:51.144Z,21.30
2017-07-04T09:26:18.698Z,21.00
2017-07-04T09:28:46.231Z,21.20
2017-07-04T09:31:13.778Z,19.40
2017-07-04T09:33:41.572Z,20.00
2017-07-04T09:36:09.152Z,19.40
2017-07-04T09:38:37.478Z,19.60
2017-07-04T09:41:05.019Z,19.60
2017-07-04T09:43:32.542Z,21.30
2017-07-04T09:46:00.086Z,20.70
2017-07-04T09:48:27.603Z,20.00
2017-07-04T09:50:58.091Z,21.50
2017-07-04T09:53:26.410Z,20.60
2017-07-04T09:55:53.933Z,20.60
2017-07-04T09:58:21.536Z,21.00
2017-07-04T10:00:49.115Z,20.40
2017-07-04T10:03:16.698Z,18.60
2017-07-04T10:05:44.233Z,18.50
2017-07-04T10:08:11.788Z,20.30
2017-07-04T10:10:39.435Z,21.50
2017-07-04T10:13:06.987Z,21.70
2017-07-04T10:15:34.551Z,22.10
2017-07-04T10:18:02.099Z,22.80
2017-07-04T10:20:29.626Z,23.30
2017-07-04T10:22:57.922Z,22.20
2017-07-04T10:25:25.466Z,21.90
2017-07-04T10:27:52.998Z,21.70
2017-07-04T10:30:20.544Z,20.80
2017-07-04T10:32:48.067Z,20.60
2017-07-04T10:35:15.633Z,20.10
2017-07-04T10:37:43.211Z,20.10
2017-07-04T10:40:10.754Z,20.30
2017-07-04T10:42:38.421Z,18.50
2017-07-04T10:45:05.966Z,17.40
2017-07-04T10:47:33.529Z,18.80
2017-07-04T10:50:01.086Z,19.70
2017-07-04T10:52:28.609Z,19.60
2017-07-04T10:54:56.150Z,18.50
2017-07-04T10:57:23.691Z,19.60
2017-07-04T10:59:51.218Z,20.80
2017-07-04T11:02:18.813Z,21.10
2017-07-04T11:04:46.345Z,22.60
2017-07-04T11:07:13.885Z,23.00
2017-07-04T11:09:41.404Z,22.40
2017-07-04T11:12:08.956Z,22.70
2017-07-04T11:14:36.501Z,23.10
2017-07-04T11:17:04.059Z,24.10
2017-07-04T11:19:31.646Z,24.90
2017-07-04T11:21:59.217Z,24.40
2017-07-04T11:24:26.739Z,24.90
2017-07-04T11:26:54.259Z,25.30
2017-07-04T11:29:21.803Z,24.90
2017-07-04T11:31:50.094Z,26.70
2017-07-04T11:34:17.635Z,26.70
2017-07-04T11:36:45.934Z,27.50
2017-07-04T11:39:13.490Z,27.40
2017-07-04T11:41:41.019Z,27.60
2017-07-04T11:44:08.570Z,27.70
2017-07-04T11:46:36.098Z,28.60
2017-07-04T11:49:03.651Z,27.00
2017-07-04T11:51:31.183Z,26.70
2017-07-04T11:53:58.748Z,26.70
2017-07-04T11:56:26.269Z,26.10
2017-07-04T11:58:53.806Z,24.70
2017-07-04T12:01:21.361Z,24.80
2017-07-04T12:03:48.896Z,24.20
2017-07-04T12:06:16.470Z,23.20
2017-07-04T12:08:43.998Z,22.90
2017-07-04T12:11:11.546Z,22.70
2017-07-04T12:13:39.856Z,23.00
2017-07-04T12:16:07.402Z,23.00
2017-07-04T12:18:34.930Z,22.70
2017-07-04T12:21:03.264Z,25.20
2017-07-04T12:23:30.810Z,25.10
2017-07-04T12:25:58.353Z,25.40
2017-07-04T12:28:25.877Z,26.80
2017-07-04T12:30:53.438Z,27.90
2017-07-04T12:33:20.955Z,28.50
2017-07-04T12:35:48.486Z,26.40
2017-07-04T12:38:16.026Z,25.10
2017-07-04T12:40:44.309Z,23.70
2017-07-04T12:43:11.854Z,23.70
2017-07-04T12:45:40.145Z,21.80
2017-07-04T12:48:07.696Z,21.70
2017-07-04T12:50:36.009Z,21.60
2017-07-04T12:53:03.565Z,21.60
2017-07-04T12:55:31.081Z,21.60
2017-07-04T12:57:59.406Z,20.90
2017-07-04T13:00:26.928Z,20.80
2017-07-04T13:02:55.263Z,19.80
2017-07-04T13:05:22.790Z,19.80
2017-07-04T13:07:50.315Z,20.50
2017-07-04T13:10:18.634Z,21.60
2017-07-04T13:12:46.163Z,21.60
2017-07-04T13:15:14.483Z,23.80
2017-07-04T13:17:42.042Z,23.70
2017-07-04T13:20:09.590Z,24.10
2017-07-04T13:22:37.126Z,25.10
2017-07-04T13:25:04.678Z,24.70
2017-07-04T13:27:32.215Z,25.80
2017-07-04T13:30:00.539Z,25.30
2017-07-04T13:32:28.059Z,25.20
2017-07-04T13:34:56.394Z,26.00
2017-07-04T13:37:23.922Z,26.00
2017-07-04T13:39:51.458Z,26.00
2017-07-04T13:42:19.772Z,25.10
2017-07-04T13:44:47.301Z,25.10
2017-07-04T13:47:15.638Z,25.00
2017-07-04T13:49:43.168Z,25.10
2017-07-04T13:52:10.710Z,24.80
2017-07-04T13:54:38.235Z,26.00
2017-07-04T13:57:06.575Z,26.40
2017-07-04T13:59:34.102Z,26.30
2017-07-04T14:02:01.655Z,26.10
2017-07-04T14:04:29.190Z,24.90
2017-07-04T14:06:57.530Z,23.50
2017-07-04T14:09:25.062Z,23.40
2017-07-04T14:11:52.623Z,21.00
2017-07-04T14:14:20.143Z,21.10
2017-07-04T14:16:47.667Z,20.30
2017-07-04T14:19:15.226Z,20.50
2017-07-04T14:21:42.785Z,20.20
2017-07-04T14:24:10.317Z,21.50
2017-07-04T14:26:37.834Z,22.20
2017-07-04T14:29:06.145Z,24.60
2017-07-04T14:31:33.679Z,24.20
2017-07-04T14:34:02.002Z,24.20
2017-07-04T14:36:29.627Z,24.20
2017-07-04T14:38:57.942Z,25.10
2017-07-04T14:41:25.537Z,25.00
2017-07-04T14:43:53.171Z,25.70
2017-07-04T14:46:20.700Z,25.10
2017-07-04T14:48:48.232Z,25.00
2017-07-04T14:51:20.258Z,24.10
2017-07-04T14:53:47.773Z,24.00
2017-07-04T14:56:15.308Z,22.90
2017-07-04T14:58:43.661Z,22.80
2017-07-04T15:01:11.986Z,22.70
2017-07-04T15:03:39.535Z,23.20
2017-07-04T15:06:07.059Z,24.00
2017-07-04T15:08:34.609Z,24.40
2017-07-04T15:11:02.158Z,23.90
2017-07-04T15:13:29.683Z,22.70
2017-07-04T15:15:57.242Z,22.10
2017-07-04T15:18:24.771Z,22.70
2017-07-04T15:20:52.295Z,22.00
2017-07-04T15:23:19.842Z,21.80
2017-07-04T15:25:47.367Z,21.00
2017-07-04T15:28:15.682Z,19.70
2017-07-04T15:30:43.206Z,19.70
2017-07-04T15:33:11.530Z,20.40
2017-07-04T15:35:39.067Z,20.40
2017-07-04T15:38:06.587Z,22.30
2017-07-04T15:40:34.892Z,22.40
2017-07-04T15:43:02.412Z,22.40
2017-07-04T15:45:30.735Z,22.20
2017-07-04T15:47:58.253Z,21.60
2017-07-04T15:50:26.575Z,20.80
2017-07-04T15:52:54.089Z,20.70
2017-07-04T15:55:22.378Z,23.20
2017-07-04T15:57:50.690Z,22.70
2017-07-04T16:00:20.123Z,22.60
2017-07-04T16:02:47.651Z,22.60
2017-07-04T16:05:15.183Z,23.20
2017-07-04T16:07:42.741Z,24.10
2017-07-04T16:10:10.423Z,24.30
2017-07-04T16:12:37.947Z,23.70
2017-07-04T16:15:06.255Z,22.90
2017-07-04T16:17:33.773Z,23.00
2017-07-04T16:20:02.100Z,24.40
2017-07-04T16:22:29.645Z,24.00
2017-07-04T16:24:57.827Z,22.30
2017-07-04T16:27:25.394Z,22.80
2017-07-04T16:29:52.924Z,22.60
2017-07-04T16:32:20.477Z,23.50
2017-07-04T16:34:48.759Z,24.00
2017-07-04T16:37:16.299Z,24.40
2017-07-04T16:39:44.590Z,22.90
2017-07-04T16:42:12.912Z,23.40
2017-07-04T16:44:40.450Z,23.40
2017-07-04T16:47:07.984Z,22.50
2017-07-04T16:49:36.293Z,22.80
2017-07-04T16:52:03.840Z,22.80
2017-07-04T16:54:31.373Z,23.20
2017-07-04T16:56:59.695Z,22.90
2017-07-04T16:59:27.242Z,22.90
2017-07-04T17:01:54.767Z,23.80
2017-07-04T17:04:23.088Z,24.10
2017-07-04T17:06:50.612Z,24.00
2017-07-04T17:09:18.158Z,25.10
2017-07-04T17:11:56.652Z,24.30
2017-07-04T17:14:24.204Z,24.20
2017-07-04T17:16:51.767Z,25.30
2017-07-04T17:19:20.196Z,24.70
2017-07-04T17:21:47.755Z,25.50
2017-07-04T17:24:18.703Z,25.40
2017-07-04T17:26:46.243Z,25.40
2017-07-04T17:29:13.762Z,25.40
2017-07-04T17:31:41.323Z,26.30
2017-07-04T17:34:08.855Z,26.90
2017-07-04T17:36:36.392Z,27.00
2017-07-04T17:39:03.936Z,26.60
2017-07-04T17:41:32.222Z,27.30
2017-07-04T17:43:59.768Z,27.30
2017-07-04T17:46:34.480Z,28.40
2017-07-04T17:49:02.765Z,28.60
2017-07-04T17:51:31.087Z,28.70
2017-07-04T17:54:04.576Z,28.70
2017-07-04T17:56:35.544Z,28.50
2017-07-04T17:59:03.089Z,28.50
2017-07-04T18:01:30.803Z,28.50
2017-07-04T18:03:59.200Z,29.00
2017-07-04T18:06:26.734Z,28.90
2017-07-04T18:08:55.078Z,29.70
2017-07-04T18:11:26.659Z,29.70
2017-07-04T18:13:54.194Z,29.70
2017-07-04T18:16:21.743Z,29.90
2017-07-04T18:18:49.360Z,30.30
2017-07-04T18:21:17.105Z,31.30
2017-07-04T18:23:44.681Z,31.90
2017-07-04T18:26:12.249Z,31.70
2017-07-04T18:28:39.801Z,32.60
2017-07-04T18:31:09.234Z,33.00
2017-07-04T18:33:40.438Z,33.00
2017-07-04T18:36:08.722Z,34.00
2017-07-04T18:38:37.042Z,34.20
2017-07-04T18:41:07.648Z,34.20
2017-07-04T18:43:35.176Z,34.30
2017-07-04T18:46:04.401Z,35.50
2017-07-04T18:48:35.651Z,35.40
2017-07-04T18:51:03.238Z,35.80
2017-07-04T18:53:30.782Z,36.60
2017-07-04T18:55:58.395Z,37.10
2017-07-04T18:58:26.700Z,37.70
2017-07-04T19:00:54.263Z,37.50
2017-07-04T19:03:21.808Z,38.10
2017-07-04T19:05:52.981Z,39.00
2017-07-04T19:08:20.526Z,39.50
2017-07-04T19:10:48.057Z,39.50
2017-07-04T19:13:16.374Z,39.60
2017-07-04T19:15:43.915Z,39.60
2017-07-04T19:18:11.474Z,39.80
2017-07-04T19:20:39.011Z,40.90
2017-07-04T19:23:06.580Z,41.00
2017-07-04T19:25:34.974Z,41.80
2017-07-04T19:28:02.542Z,42.50
2017-07-04T19:30:30.085Z,43.50
2017-07-04T19:32:57.630Z,43.90
2017-07-04T19:35:25.928Z,44.00
2017-07-04T19:37:53.560Z,43.90
2017-07-04T19:40:21.878Z,44.10
2017-07-04T19:42:49.413Z,44.10
2017-07-04T19:45:16.983Z,44.60
2017-07-04T19:47:44.574Z,45.30
2017-07-04T19:50:12.149Z,45.00
2017-07-04T19:52:39.675Z,45.50
2017-07-04T19:55:07.282Z,45.90
2017-07-04T19:57:34.882Z,47.20
2017-07-04T20:00:02.538Z,47.50
2017-07-04T20:02:30.097Z,47.20
2017-07-04T20:04:57.654Z,47.70
2017-07-04T20:07:25.191Z,48.20
2017-07-04T20:09:53.532Z,49.30
2017-07-04T20:12:21.147Z,49.30
2017-07-04T20:14:48.720Z,50.00
2017-07-04T20:17:16.299Z,50.80
2017-07-04T20:19:43.847Z,51.00
2017-07-04T20:22:11.478Z,51.50
2017-07-04T20:24:39.079Z,52.20
2017-07-04T20:27:06.638Z,52.50
2017-07-04T20:29:34.162Z,53.60
2017-07-04T20:32:01.715Z,53.70
2017-07-04T20:34:29.242Z,54.20
2017-07-04T20:36:56.778Z,54.40
2017-07-04T20:39:24.324Z,54.50
2017-07-04T20:41:51.909Z,54.30
2017-07-04T20:44:19.473Z,55.70
2017-07-04T20:46:47.108Z,55.70
2017-07-04T20:49:14.653Z,57.70
2017-07-04T20:51:42.182Z,57.50
2017-07-04T20:54:09.735Z,58.90
2017-07-04T20:56:38.238Z,60.40
2017-07-04T20:59:05.823Z,60.40
2017-07-04T21:01:33.389Z,60.60
2017-07-04T21:04:00.956Z,62.10
2017-07-04T21:06:28.493Z,63.00
2017-07-04T21:08:56.082Z,62.80
2017-07-04T21:11:23.600Z,62.60
2017-07-04T21:13:51.253Z,62.80
2017-07-04T21:16:18.899Z,63.80
2017-07-04T21:18:46.430Z,64.10
2017-07-04T21:21:14.008Z,64.50
2017-07-04T21:23:41.531Z,65.90
2017-07-04T21:26:09.133Z,66.00
2017-07-04T21:28:36.637Z,67.20
2017-07-04T21:31:04.637Z,67.10
2017-07-04T21:33:32.170Z,67.50
2017-07-04T21:35:59.874Z,68.80
2017-07-04T21:38:28.183Z,70.40
2017-07-04T21:40:55.740Z,70.30
2017-07-04T21:43:23.281Z,70.40
2017-07-04T21:45:51.432Z,71.00
2017-07-04T21:48:19.099Z,70.10
2017-07-04T21:50:46.683Z,70.20
2017-07-04T21:53:14.243Z,68.40
2017-07-04T21:55:41.786Z,67.40
2017-07-04T21:58:09.331Z,66.70
2017-07-04T22:00:36.866Z,67.00
2017-07-04T22:03:04.426Z,67.00
2017-07-04T22:05:31.957Z,66.90
2017-07-04T22:07:59.508Z,67.90
2017-07-04T22:10:27.073Z,67.30
2017-07-04T22:12:54.626Z,67.70
2017-07-04T22:15:22.164Z,68.40
2017-07-04T22:17:49.697Z,68.60
2017-07-04T22:20:17.246Z,69.00
2017-07-04T22:22:45.060Z,69.70
2017-07-04T22:25:12.643Z,70.20
2017-07-04T22:27:40.172Z,69.70
2017-07-04T22:30:07.726Z,70.20
2017-07-04T22:32:48.504Z,70.30
2017-07-04T22:35:16.050Z,70.30
2017-07-04T22:37:44.354Z,70.90
2017-07-04T22:40:11.905Z,70.90
2017-07-04T22:42:39.463Z,71.90
2017-07-04T22:45:07.031Z,72.60
2017-07-04T22:47:34.559Z,72.60
2017-07-04T22:50:02.877Z,73.10
2017-07-04T22:52:30.482Z,73.00
2017-07-04T22:55:01.045Z,73.90
2017-07-04T22:57:28.603Z,73.80
2017-07-04T22:59:56.160Z,74.30
2017-07-04T23:02:23.724Z,75.30
2017-07-04T23:04:51.250Z,75.30
2017-07-04T23:07:19.571Z,75.40
2017-07-04T23:09:47.090Z,75.70
2017-07-04T23:12:14.684Z,76.00
2017-07-04T23:14:42.219Z,76.50
2017-07-04T23:17:10.530Z,77.00
2017-07-04T23:19:38.055Z,77.00
2017-07-04T23:22:06.350Z,77.50
2017-07-04T23:24:33.959Z,77.40
2017-07-04T23:27:01.491Z,77.80
2017-07-04T23:29:29.046Z,78.20
2017-07-04T23:31:56.575Z,78.30
2017-07-04T23:34:24.888Z,78.70
2017-07-04T23:36:52.416Z,78.70
2017-07-04T23:39:20.750Z,79.20
2017-07-04T23:41:48.286Z,79.20
2017-07-04T23:44:15.835Z,79.80
2017-07-04T23:46:43.359Z,80.90
2017-07-04T23:49:11.672Z,80.90
2017-07-04T23:51:39.195Z,80.80
2017-07-04T23:54:07.486Z,80.80
2017-07-04T23:56:35.031Z,80.80
2017-07-04T23:59:03.333Z,81.60
